Harrisburg International Airport Harrisburg US
ICAO: KMDT
IATA: MDT
Category: Medium
Scheduled Services: Yes

Elevation: 310 ft
TransAlt. 18000 ft.

Airport Communications:
APP/DEP:118.25
ATIS:118.8
GND:121.7
ANG OPS:39.51
TWR:124.8

KMDT Zoom In..

Runways:

(A) RW 13 length 10002 ft width 200 ft
ILS 110.90 / hdg 128

(B) RW 31 length 10002 ft width 200 ft
ILS 110.90 / hdg 308

Location; KMDT
Day. 22 / Time. 23.56 Zulu
* Altimeter: 30.00
* Temperature: 09° c. 48.2°f.
* Wind from: 070° Speed 03 kn.
Dewpoint: 05° c.
Visibility: 10 Statute Miles.
Clouds: Overcast 2000 ft.

KMDT 222356Z 07003KT 10SM OVC200 09/05 A3000 RMK AO2 SLP161 T00890050 10122 20083 56007


Wind From 070°
Speed 03 kn.

YouTube Music Video
 
jpsmedia.com for Web Design  worldairports.se 2018   terms of use